Terminal Aerodrome Forecast
Issued by NWS Omaha/Valley, NE

Home | Current Version | Previous Version | Graphics & Text | Print | Product List | Glossary On
Versions: 1 2 3 4 5 6 7 8 9 10 11 12 13 14
000
FTUS43 KOAX 201733
TAFOFK
TAF
KOFK 201733Z 2018/2118 32015G23KT P6SM BKN017
     FM210000 33011KT P6SM SCT250
     FM210600 32007KT P6SM FEW250
     FM211400 VRB03KT P6SM FEW250=

USA.gov is the U.S. government's official web portal to all federal, state and local government web resources and services.